sensor_id;sensor_type;location;lat;lon;timestamp;pressure;altitude;pressure_sealevel;temperature;humidity
8501;BME280;4288;48.484;10.024;2023-03-15T00:00:35;94910.72;;;1.70;nan
8501;BME280;4288;48.484;10.024;2023-03-15T00:03:02;94914.06;;;1.67;nan
8501;BME280;4288;48.484;10.024;2023-03-15T00:05:30;94915.00;;;1.74;nan
8501;BME280;4288;48.484;10.024;2023-03-15T00:07:57;94923.31;;;1.76;nan
8501;BME280;4288;48.484;10.024;2023-03-15T00:10:24;94923.63;;;1.59;nan
8501;BME280;4288;48.484;10.024;2023-03-15T00:12:51;94928.00;;;1.67;nan
8501;BME280;4288;48.484;10.024;2023-03-15T00:15:20;94940.56;;;1.74;nan
8501;BME280;4288;48.484;10.024;2023-03-15T00:17:47;94936.22;;;1.81;nan
8501;BME280;4288;48.484;10.024;2023-03-15T00:20:15;94946.47;;;1.99;nan
8501;BME280;4288;48.484;10.024;2023-03-15T00:22:43;94956.25;;;2.14;nan
8501;BME280;4288;48.484;10.024;2023-03-15T00:25:11;94957.69;;;2.11;nan
8501;BME280;4288;48.484;10.024;2023-03-15T00:27:38;94970.84;;;1.96;nan
8501;BME280;4288;48.484;10.024;2023-03-15T00:30:06;94972.97;;;1.90;nan
8501;BME280;4288;48.484;10.024;2023-03-15T00:32:35;94976.47;;;1.66;nan
8501;BME280;4288;48.484;10.024;2023-03-15T00:35:02;94977.63;;;1.53;nan
8501;BME280;4288;48.484;10.024;2023-03-15T00:37:30;94964.13;;;1.55;nan
8501;BME280;4288;48.484;10.024;2023-03-15T00:39:57;94971.53;;;1.37;nan
8501;BME280;4288;48.484;10.024;2023-03-15T00:42:24;94975.75;;;1.26;nan
8501;BME280;4288;48.484;10.024;2023-03-15T00:44:52;94984.75;;;1.13;nan
8501;BME280;4288;48.484;10.024;2023-03-15T00:47:20;94993.44;;;1.02;nan
8501;BME280;4288;48.484;10.024;2023-03-15T00:49:49;95003.78;;;0.95;nan
8501;BME280;4288;48.484;10.024;2023-03-15T00:52:17;95011.13;;;0.89;nan
8501;BME280;4288;48.484;10.024;2023-03-15T00:54:50;95013.97;;;0.84;nan
8501;BME280;4288;48.484;10.024;2023-03-15T00:57:18;95026.66;;;0.82;nan
8501;BME280;4288;48.484;10.024;2023-03-15T00:59:45;95041.91;;;0.76;nan
8501;BME280;4288;48.484;10.024;2023-03-15T01:02:12;95052.53;;;0.92;nan
8501;BME280;4288;48.484;10.024;2023-03-15T01:04:40;95079.94;;;0.79;nan
8501;BME280;4288;48.484;10.024;2023-03-15T01:07:08;95093.53;;;0.81;nan
8501;BME280;4288;48.484;10.024;2023-03-15T01:09:36;95097.13;;;0.76;nan
8501;BME280;4288;48.484;10.024;2023-03-15T01:12:04;95118.06;;;0.73;nan
8501;BME280;4288;48.484;10.024;2023-03-15T01:14:31;95121.22;;;0.66;nan
8501;BME280;4288;48.484;10.024;2023-03-15T01:17:00;95132.59;;;0.70;nan
8501;BME280;4288;48.484;10.024;2023-03-15T01:19:27;95130.63;;;0.55;nan
8501;BME280;4288;48.484;10.024;2023-03-15T01:21:54;95125.06;;;0.69;nan
8501;BME280;4288;48.484;10.024;2023-03-15T01:24:22;95124.72;;;0.70;nan
8501;BME280;4288;48.484;10.024;2023-03-15T01:26:49;95116.63;;;0.75;nan
8501;BME280;4288;48.484;10.024;2023-03-15T01:29:16;95117.09;;;0.77;nan
8501;BME280;4288;48.484;10.024;2023-03-15T01:31:43;95121.78;;;0.72;nan
8501;BME280;4288;48.484;10.024;2023-03-15T01:34:11;95140.84;;;0.69;nan
8501;BME280;4288;48.484;10.024;2023-03-15T01:36:38;95146.41;;;0.67;nan
8501;BME280;4288;48.484;10.024;2023-03-15T01:39:05;95135.56;;;0.69;nan
8501;BME280;4288;48.484;10.024;2023-03-15T01:41:33;95144.47;;;0.76;nan
8501;BME280;4288;48.484;10.024;2023-03-15T01:44:00;95158.59;;;0.72;nan
8501;BME280;4288;48.484;10.024;2023-03-15T01:46:28;95169.09;;;0.60;nan
8501;BME280;4288;48.484;10.024;2023-03-15T01:49:04;95181.22;;;0.52;nan
8501;BME280;4288;48.484;10.024;2023-03-15T01:51:36;95187.16;;;0.61;nan
8501;BME280;4288;48.484;10.024;2023-03-15T01:54:12;95192.75;;;0.60;nan
8501;BME280;4288;48.484;10.024;2023-03-15T01:56:46;95203.38;;;0.63;nan
8501;BME280;4288;48.484;10.024;2023-03-15T01:59:19;95201.16;;;0.53;nan
8501;BME280;4288;48.484;10.024;2023-03-15T02:01:48;95211.16;;;0.60;nan
8501;BME280;4288;48.484;10.024;2023-03-15T02:04:23;95211.47;;;0.58;nan
8501;BME280;4288;48.484;10.024;2023-03-15T02:06:54;95215.69;;;0.51;nan
8501;BME280;4288;48.484;10.024;2023-03-15T02:09:26;95219.66;;;0.57;nan
8501;BME280;4288;48.484;10.024;2023-03-15T02:11:58;95222.50;;;0.52;nan
8501;BME280;4288;48.484;10.024;2023-03-15T02:14:25;95223.91;;;0.49;nan
8501;BME280;4288;48.484;10.024;2023-03-15T02:16:54;95227.19;;;0.46;nan
8501;BME280;4288;48.484;10.024;2023-03-15T02:19:38;95229.25;;;0.41;nan
8501;BME280;4288;48.484;10.024;2023-03-15T02:22:22;95232.06;;;0.36;nan
8501;BME280;4288;48.484;10.024;2023-03-15T02:24:58;95240.97;;;0.23;nan
8501;BME280;4288;48.484;10.024;2023-03-15T02:27:29;95236.19;;;0.25;nan
8501;BME280;4288;48.484;10.024;2023-03-15T02:30:00;95236.97;;;0.25;nan
8501;BME280;4288;48.484;10.024;2023-03-15T02:32:28;95236.44;;;0.11;nan
8501;BME280;4288;48.484;10.024;2023-03-15T02:34:56;95250.38;;;0.24;nan
8501;BME280;4288;48.484;10.024;2023-03-15T02:37:23;95257.19;;;0.25;nan
8501;BME280;4288;48.484;10.024;2023-03-15T02:39:51;95266.94;;;0.24;nan
8501;BME280;4288;48.484;10.024;2023-03-15T02:42:18;95267.25;;;0.23;nan
8501;BME280;4288;48.484;10.024;2023-03-15T02:44:47;95268.34;;;0.22;nan
8501;BME280;4288;48.484;10.024;2023-03-15T02:47:18;95268.84;;;0.36;nan
8501;BME280;4288;48.484;10.024;2023-03-15T02:49:50;95280.66;;;0.30;nan
8501;BME280;4288;48.484;10.024;2023-03-15T02:52:19;95284.69;;;0.48;nan
8501;BME280;4288;48.484;10.024;2023-03-15T02:54:46;95289.25;;;0.39;nan
8501;BME280;4288;48.484;10.024;2023-03-15T02:57:15;95291.56;;;0.40;nan
8501;BME280;4288;48.484;10.024;2023-03-15T02:59:43;95298.50;;;0.45;nan
8501;BME280;4288;48.484;10.024;2023-03-15T03:02:12;95304.00;;;0.52;nan
8501;BME280;4288;48.484;10.024;2023-03-15T03:04:39;95315.66;;;0.42;nan
8501;BME280;4288;48.484;10.024;2023-03-15T03:07:07;95327.09;;;0.46;nan
8501;BME280;4288;48.484;10.024;2023-03-15T03:09:34;95330.59;;;0.50;nan
8501;BME280;4288;48.484;10.024;2023-03-15T03:12:01;95331.44;;;0.42;nan
8501;BME280;4288;48.484;10.024;2023-03-15T03:14:28;95339.06;;;0.56;nan
8501;BME280;4288;48.484;10.024;2023-03-15T03:16:56;95347.84;;;0.60;nan
8501;BME280;4288;48.484;10.024;2023-03-15T03:19:24;95356.53;;;0.60;nan
8501;BME280;4288;48.484;10.024;2023-03-15T03:21:51;95367.94;;;0.64;nan
8501;BME280;4288;48.484;10.024;2023-03-15T03:24:19;95372.66;;;0.50;nan
8501;BME280;4288;48.484;10.024;2023-03-15T03:26:47;95375.50;;;0.66;nan
8501;BME280;4288;48.484;10.024;2023-03-15T03:29:14;95377.94;;;0.50;nan
8501;BME280;4288;48.484;10.024;2023-03-15T03:31:42;95373.69;;;0.58;nan
8501;BME280;4288;48.484;10.024;2023-03-15T03:34:09;95378.75;;;0.63;nan
8501;BME280;4288;48.484;10.024;2023-03-15T03:36:40;95386.09;;;0.49;nan
8501;BME280;4288;48.484;10.024;2023-03-15T03:39:08;95394.41;;;0.59;nan
8501;BME280;4288;48.484;10.024;2023-03-15T03:41:35;95393.00;;;0.62;nan
8501;BME280;4288;48.484;10.024;2023-03-15T03:44:02;95395.34;;;0.55;nan
8501;BME280;4288;48.484;10.024;2023-03-15T03:46:30;95396.72;;;0.61;nan
8501;BME280;4288;48.484;10.024;2023-03-15T03:48:57;95395.97;;;0.60;nan
8501;BME280;4288;48.484;10.024;2023-03-15T03:51:24;95391.09;;;0.71;nan
8501;BME280;4288;48.484;10.024;2023-03-15T03:53:52;95399.16;;;0.66;nan
8501;BME280;4288;48.484;10.024;2023-03-15T03:56:19;95409.84;;;0.61;nan
8501;BME280;4288;48.484;10.024;2023-03-15T03:58:46;95398.59;;;0.60;nan
8501;BME280;4288;48.484;10.024;2023-03-15T04:01:13;95400.59;;;0.55;nan
8501;BME280;4288;48.484;10.024;2023-03-15T04:03:40;95417.13;;;0.64;nan
8501;BME280;4288;48.484;10.024;2023-03-15T04:06:07;95415.31;;;0.56;nan
8501;BME280;4288;48.484;10.024;2023-03-15T04:08:35;95421.09;;;0.70;nan
8501;BME280;4288;48.484;10.024;2023-03-15T04:11:04;95425.25;;;0.71;nan
8501;BME280;4288;48.484;10.024;2023-03-15T04:13:31;95436.59;;;0.63;nan
8501;BME280;4288;48.484;10.024;2023-03-15T04:15:58;95438.97;;;0.56;nan
8501;BME280;4288;48.484;10.024;2023-03-15T04:18:27;95443.13;;;0.57;nan
8501;BME280;4288;48.484;10.024;2023-03-15T04:20:54;95444.19;;;0.64;nan
8501;BME280;4288;48.484;10.024;2023-03-15T04:23:23;95452.13;;;0.56;nan
8501;BME280;4288;48.484;10.024;2023-03-15T04:25:51;95445.28;;;0.63;nan
8501;BME280;4288;48.484;10.024;2023-03-15T04:28:21;95450.44;;;0.51;nan
8501;BME280;4288;48.484;10.024;2023-03-15T04:30:49;95460.94;;;0.51;nan
8501;BME280;4288;48.484;10.024;2023-03-15T04:33:16;95461.59;;;0.48;nan
8501;BME280;4288;48.484;10.024;2023-03-15T04:35:43;95464.84;;;0.45;nan
8501;BME280;4288;48.484;10.024;2023-03-15T04:38:10;95467.59;;;0.49;nan
8501;BME280;4288;48.484;10.024;2023-03-15T04:40:37;95476.44;;;0.44;nan
8501;BME280;4288;48.484;10.024;2023-03-15T04:43:08;95480.31;;;0.47;nan
8501;BME280;4288;48.484;10.024;2023-03-15T04:45:36;95477.69;;;0.47;nan
8501;BME280;4288;48.484;10.024;2023-03-15T04:48:03;95485.00;;;0.33;nan
8501;BME280;4288;48.484;10.024;2023-03-15T04:50:31;95485.63;;;0.30;nan
8501;BME280;4288;48.484;10.024;2023-03-15T04:52:58;95487.63;;;0.33;nan
8501;BME280;4288;48.484;10.024;2023-03-15T04:55:25;95484.69;;;0.34;nan
8501;BME280;4288;48.484;10.024;2023-03-15T04:57:52;95494.88;;;0.36;nan
8501;BME280;4288;48.484;10.024;2023-03-15T05:00:20;95498.16;;;0.33;nan
8501;BME280;4288;48.484;10.024;2023-03-15T05:02:49;95499.69;;;0.34;nan
8501;BME280;4288;48.484;10.024;2023-03-15T05:05:20;95502.59;;;0.41;nan
8501;BME280;4288;48.484;10.024;2023-03-15T05:07:48;95501.19;;;0.43;nan
8501;BME280;4288;48.484;10.024;2023-03-15T05:10:16;95508.13;;;0.48;nan
8501;BME280;4288;48.484;10.024;2023-03-15T05:12:43;95508.72;;;0.53;nan
8501;BME280;4288;48.484;10.024;2023-03-15T05:15:10;95507.81;;;0.49;nan
8501;BME280;4288;48.484;10.024;2023-03-15T05:17:37;95508.72;;;0.53;nan
8501;BME280;4288;48.484;10.024;2023-03-15T05:20:07;95519.44;;;0.48;nan
8501;BME280;4288;48.484;10.024;2023-03-15T05:22:37;95515.28;;;0.39;nan
8501;BME280;4288;48.484;10.024;2023-03-15T05:25:05;95519.44;;;0.40;nan
8501;BME280;4288;48.484;10.024;2023-03-15T05:27:33;95524.69;;;0.40;nan
8501;BME280;4288;48.484;10.024;2023-03-15T05:30:01;95524.69;;;0.48;nan
8501;BME280;4288;48.484;10.024;2023-03-15T05:32:28;95528.56;;;0.42;nan
8501;BME280;4288;48.484;10.024;2023-03-15T05:34:59;95535.81;;;0.45;nan
8501;BME280;4288;48.484;10.024;2023-03-15T05:37:28;95544.03;;;0.44;nan
8501;BME280;4288;48.484;10.024;2023-03-15T05:39:57;95545.28;;;0.38;nan
8501;BME280;4288;48.484;10.024;2023-03-15T05:42:24;95547.13;;;0.37;nan
8501;BME280;4288;48.484;10.024;2023-03-15T05:44:52;95558.41;;;0.46;nan
8501;BME280;4288;48.484;10.024;2023-03-15T05:47:19;95554.72;;;0.39;nan
8501;BME280;4288;48.484;10.024;2023-03-15T05:49:46;95560.91;;;0.34;nan
8501;BME280;4288;48.484;10.024;2023-03-15T05:52:14;95560.75;;;0.31;nan
8501;BME280;4288;48.484;10.024;2023-03-15T05:54:42;95560.91;;;0.26;nan
8501;BME280;4288;48.484;10.024;2023-03-15T05:57:10;95562.00;;;0.25;nan
8501;BME280;4288;48.484;10.024;2023-03-15T05:59:37;95567.13;;;0.13;nan
8501;BME280;4288;48.484;10.024;2023-03-15T06:02:05;95565.56;;;0.20;nan
8501;BME280;4288;48.484;10.024;2023-03-15T06:04:32;95581.03;;;0.13;nan
8501;BME280;4288;48.484;10.024;2023-03-15T06:07:01;95577.03;;;0.16;nan
8501;BME280;4288;48.484;10.024;2023-03-15T06:09:28;95575.59;;;0.18;nan
8501;BME280;4288;48.484;10.024;2023-03-15T06:11:57;95579.81;;;0.19;nan
8501;BME280;4288;48.484;10.024;2023-03-15T06:14:24;95576.38;;;0.27;nan
8501;BME280;4288;48.484;10.024;2023-03-15T06:16:52;95585.00;;;0.36;nan
8501;BME280;4288;48.484;10.024;2023-03-15T06:19:19;95592.75;;;0.24;nan
8501;BME280;4288;48.484;10.024;2023-03-15T06:21:47;95590.44;;;0.23;nan
8501;BME280;4288;48.484;10.024;2023-03-15T06:24:14;95599.88;;;0.24;nan
8501;BME280;4288;48.484;10.024;2023-03-15T06:26:42;95591.50;;;0.30;nan
8501;BME280;4288;48.484;10.024;2023-03-15T06:29:10;95594.44;;;0.37;nan
8501;BME280;4288;48.484;10.024;2023-03-15T06:31:37;95600.16;;;0.39;nan
8501;BME280;4288;48.484;10.024;2023-03-15T06:34:04;95600.88;;;0.65;nan
8501;BME280;4288;48.484;10.024;2023-03-15T06:36:31;95610.00;;;0.51;nan
8501;BME280;4288;48.484;10.024;2023-03-15T06:38:58;95606.91;;;0.57;nan
8501;BME280;4288;48.484;10.024;2023-03-15T06:41:27;95606.63;;;0.97;nan
8501;BME280;4288;48.484;10.024;2023-03-15T06:43:54;95617.59;;;1.07;nan
8501;BME280;4288;48.484;10.024;2023-03-15T06:46:23;95612.38;;;0.90;nan
8501;BME280;4288;48.484;10.024;2023-03-15T06:48:50;95612.75;;;0.80;nan
8501;BME280;4288;48.484;10.024;2023-03-15T06:51:17;95623.50;;;0.96;nan
8501;BME280;4288;48.484;10.024;2023-03-15T06:53:44;95618.78;;;1.10;nan
8501;BME280;4288;48.484;10.024;2023-03-15T06:56:11;95619.09;;;1.17;nan
8501;BME280;4288;48.484;10.024;2023-03-15T06:58:38;95613.53;;;1.10;nan
8501;BME280;4288;48.484;10.024;2023-03-15T07:01:05;95622.44;;;1.26;nan
8501;BME280;4288;48.484;10.024;2023-03-15T07:03:34;95621.16;;;1.32;nan
8501;BME280;4288;48.484;10.024;2023-03-15T07:06:02;95630.44;;;1.38;nan
8501;BME280;4288;48.484;10.024;2023-03-15T07:08:29;95637.88;;;1.65;nan
8501;BME280;4288;48.484;10.024;2023-03-15T07:10:56;95641.91;;;1.62;nan
8501;BME280;4288;48.484;10.024;2023-03-15T07:13:23;95644.63;;;1.74;nan
8501;BME280;4288;48.484;10.024;2023-03-15T07:15:51;95643.22;;;1.77;nan
8501;BME280;4288;48.484;10.024;2023-03-15T07:18:18;95642.63;;;1.71;nan
8501;BME280;4288;48.484;10.024;2023-03-15T07:20:54;95635.81;;;2.12;nan
8501;BME280;4288;48.484;10.024;2023-03-15T07:23:22;95644.19;;;2.14;nan
8501;BME280;4288;48.484;10.024;2023-03-15T07:25:49;95639.53;;;1.90;nan
8501;BME280;4288;48.484;10.024;2023-03-15T07:28:16;95637.41;;;2.25;nan
8501;BME280;4288;48.484;10.024;2023-03-15T07:30:52;95645.94;;;2.42;nan
8501;BME280;4288;48.484;10.024;2023-03-15T07:33:19;95648.84;;;2.49;nan
8501;BME280;4288;48.484;10.024;2023-03-15T07:35:49;95653.25;;;2.57;nan
8501;BME280;4288;48.484;10.024;2023-03-15T07:38:16;95649.63;;;2.29;nan
8501;BME280;4288;48.484;10.024;2023-03-15T07:40:43;95653.56;;;2.23;nan
8501;BME280;4288;48.484;10.024;2023-03-15T07:43:11;95648.00;;;2.37;nan
8501;BME280;4288;48.484;10.024;2023-03-15T07:45:38;95644.56;;;2.57;nan
8501;BME280;4288;48.484;10.024;2023-03-15T07:48:05;95639.81;;;2.95;nan
8501;BME280;4288;48.484;10.024;2023-03-15T07:50:33;95650.38;;;2.95;nan
8501;BME280;4288;48.484;10.024;2023-03-15T07:53:04;95643.03;;;3.13;nan
8501;BME280;4288;48.484;10.024;2023-03-15T07:55:31;95644.31;;;2.83;nan
8501;BME280;4288;48.484;10.024;2023-03-15T07:57:58;95650.31;;;3.40;nan
8501;BME280;4288;48.484;10.024;2023-03-15T08:00:26;95645.25;;;3.35;nan
8501;BME280;4288;48.484;10.024;2023-03-15T08:02:53;95656.25;;;3.61;nan
8501;BME280;4288;48.484;10.024;2023-03-15T08:05:21;95651.03;;;4.01;nan
8501;BME280;4288;48.484;10.024;2023-03-15T08:07:49;95650.84;;;3.82;nan
8501;BME280;4288;48.484;10.024;2023-03-15T08:10:18;95655.06;;;3.58;nan
8501;BME280;4288;48.484;10.024;2023-03-15T08:12:45;95648.78;;;4.15;nan
8501;BME280;4288;48.484;10.024;2023-03-15T08:15:13;95653.56;;;4.09;nan
8501;BME280;4288;48.484;10.024;2023-03-15T08:17:43;95652.28;;;3.67;nan
8501;BME280;4288;48.484;10.024;2023-03-15T08:20:11;95653.78;;;3.92;nan
8501;BME280;4288;48.484;10.024;2023-03-15T08:22:39;95659.75;;;3.89;nan
8501;BME280;4288;48.484;10.024;2023-03-15T08:25:10;95651.22;;;4.47;nan
8501;BME280;4288;48.484;10.024;2023-03-15T08:27:39;95648.94;;;4.34;nan
8501;BME280;4288;48.484;10.024;2023-03-15T08:30:09;95639.66;;;4.68;nan
8501;BME280;4288;48.484;10.024;2023-03-15T08:32:37;95647.13;;;4.78;nan
8501;BME280;4288;48.484;10.024;2023-03-15T08:35:06;95646.00;;;4.79;nan
8501;BME280;4288;48.484;10.024;2023-03-15T08:37:33;95644.31;;;4.59;nan
8501;BME280;4288;48.484;10.024;2023-03-15T08:40:00;95657.22;;;4.32;nan
8501;BME280;4288;48.484;10.024;2023-03-15T08:42:33;95661.66;;;4.56;nan
8501;BME280;4288;48.484;10.024;2023-03-15T08:45:02;95664.81;;;4.89;nan
8501;BME280;4288;48.484;10.024;2023-03-15T08:47:30;95671.66;;;4.63;nan
8501;BME280;4288;48.484;10.024;2023-03-15T08:49:57;95676.91;;;4.07;nan
8501;BME280;4288;48.484;10.024;2023-03-15T08:52:24;95684.41;;;4.73;nan
8501;BME280;4288;48.484;10.024;2023-03-15T08:54:51;95672.34;;;4.20;nan
8501;BME280;4288;48.484;10.024;2023-03-15T08:57:18;95674.66;;;4.61;nan
8501;BME280;4288;48.484;10.024;2023-03-15T08:59:45;95673.72;;;4.69;nan
8501;BME280;4288;48.484;10.024;2023-03-15T09:02:13;95676.53;;;5.19;nan
8501;BME280;4288;48.484;10.024;2023-03-15T09:04:41;95680.41;;;5.53;nan
8501;BME280;4288;48.484;10.024;2023-03-15T09:07:08;95679.47;;;5.14;nan
8501;BME280;4288;48.484;10.024;2023-03-15T09:09:37;95676.34;;;6.06;nan
8501;BME280;4288;48.484;10.024;2023-03-15T09:12:05;95676.50;;;6.32;nan
8501;BME280;4288;48.484;10.024;2023-03-15T09:14:32;95686.19;;;5.74;nan
8501;BME280;4288;48.484;10.024;2023-03-15T09:16:59;95686.38;;;6.51;nan
8501;BME280;4288;48.484;10.024;2023-03-15T09:19:28;95672.84;;;6.21;nan
8501;BME280;4288;48.484;10.024;2023-03-15T09:21:56;95673.59;;;6.37;nan
8501;BME280;4288;48.484;10.024;2023-03-15T09:24:23;95674.91;;;6.66;nan
8501;BME280;4288;48.484;10.024;2023-03-15T09:26:51;95669.00;;;6.53;nan
8501;BME280;4288;48.484;10.024;2023-03-15T09:29:18;95667.75;;;8.05;nan
8501;BME280;4288;48.484;10.024;2023-03-15T09:31:45;95674.97;;;7.79;nan
8501;BME280;4288;48.484;10.024;2023-03-15T09:34:12;95674.16;;;7.30;nan
8501;BME280;4288;48.484;10.024;2023-03-15T09:36:40;95673.63;;;7.43;nan
8501;BME280;4288;48.484;10.024;2023-03-15T09:39:08;95667.59;;;7.69;nan
8501;BME280;4288;48.484;10.024;2023-03-15T09:41:41;95671.06;;;7.73;nan
8501;BME280;4288;48.484;10.024;2023-03-15T09:44:19;95669.59;;;7.75;nan
8501;BME280;4288;48.484;10.024;2023-03-15T09:47:04;95675.22;;;8.23;nan
8501;BME280;4288;48.484;10.024;2023-03-15T09:49:42;95679.69;;;7.89;nan
8501;BME280;4288;48.484;10.024;2023-03-15T09:52:27;95681.00;;;8.02;nan
8501;BME280;4288;48.484;10.024;2023-03-15T09:54:58;95683.38;;;7.81;nan
8501;BME280;4288;48.484;10.024;2023-03-15T09:57:36;95681.06;;;7.57;nan
8501;BME280;4288;48.484;10.024;2023-03-15T10:00:14;95684.91;;;7.59;nan
8501;BME280;4288;48.484;10.024;2023-03-15T10:02:54;95680.97;;;7.98;nan
8501;BME280;4288;48.484;10.024;2023-03-15T10:05:32;95676.88;;;5.96;nan
8501;BME280;4288;48.484;10.024;2023-03-15T10:08:02;95680.88;;;7.43;nan
8501;BME280;4288;48.484;10.024;2023-03-15T10:10:38;95677.94;;;7.74;nan
8501;BME280;4288;48.484;10.024;2023-03-15T10:13:28;95682.41;;;7.92;nan
8501;BME280;4288;48.484;10.024;2023-03-15T10:16:10;95682.16;;;8.57;nan
8501;BME280;4288;48.484;10.024;2023-03-15T10:19:00;95684.22;;;7.40;nan
8501;BME280;4288;48.484;10.024;2023-03-15T10:21:37;95673.03;;;9.28;nan
8501;BME280;4288;48.484;10.024;2023-03-15T10:24:18;95688.50;;;9.12;nan
8501;BME280;4288;48.484;10.024;2023-03-15T10:26:46;95688.91;;;7.95;nan
8501;BME280;4288;48.484;10.024;2023-03-15T10:29:18;95693.38;;;8.69;nan
8501;BME280;4288;48.484;10.024;2023-03-15T10:31:46;95692.66;;;9.09;nan
8501;BME280;4288;48.484;10.024;2023-03-15T10:34:14;95686.31;;;8.87;nan
8501;BME280;4288;48.484;10.024;2023-03-15T10:36:47;95684.28;;;9.47;nan
8501;BME280;4288;48.484;10.024;2023-03-15T10:39:16;95697.88;;;8.65;nan
8501;BME280;4288;48.484;10.024;2023-03-15T10:41:46;95683.78;;;8.98;nan
8501;BME280;4288;48.484;10.024;2023-03-15T10:44:17;95681.28;;;9.12;nan
8501;BME280;4288;48.484;10.024;2023-03-15T10:47:02;95679.16;;;8.29;nan
8501;BME280;4288;48.484;10.024;2023-03-15T10:49:35;95665.28;;;8.75;nan
8501;BME280;4288;48.484;10.024;2023-03-15T10:52:05;95676.59;;;8.39;nan
8501;BME280;4288;48.484;10.024;2023-03-15T10:54:34;95672.47;;;8.16;nan
8501;BME280;4288;48.484;10.024;2023-03-15T10:57:04;95671.72;;;8.15;nan
8501;BME280;4288;48.484;10.024;2023-03-15T10:59:34;95672.63;;;7.74;nan
8501;BME280;4288;48.484;10.024;2023-03-15T11:02:19;95664.69;;;8.59;nan
8501;BME280;4288;48.484;10.024;2023-03-15T11:04:58;95669.06;;;8.45;nan
8501;BME280;4288;48.484;10.024;2023-03-15T11:07:26;95668.84;;;8.57;nan
8501;BME280;4288;48.484;10.024;2023-03-15T11:09:59;95671.06;;;7.95;nan
8501;BME280;4288;48.484;10.024;2023-03-15T11:12:29;95668.75;;;8.79;nan
8501;BME280;4288;48.484;10.024;2023-03-15T11:15:00;95661.06;;;9.11;nan
8501;BME280;4288;48.484;10.024;2023-03-15T11:17:33;95674.53;;;8.55;nan
8501;BME280;4288;48.484;10.024;2023-03-15T11:20:09;95670.25;;;10.08;nan
8501;BME280;4288;48.484;10.024;2023-03-15T11:22:44;95662.97;;;10.02;nan
8501;BME280;4288;48.484;10.024;2023-03-15T11:25:14;95665.28;;;9.12;nan
8501;BME280;4288;48.484;10.024;2023-03-15T11:27:42;95659.91;;;10.03;nan
8501;BME280;4288;48.484;10.024;2023-03-15T11:30:14;95647.09;;;9.72;nan
8501;BME280;4288;48.484;10.024;2023-03-15T11:32:42;95653.63;;;11.71;nan
8501;BME280;4288;48.484;10.024;2023-03-15T11:35:13;95645.47;;;9.57;nan
8501;BME280;4288;48.484;10.024;2023-03-15T11:37:45;95642.56;;;9.76;nan
8501;BME280;4288;48.484;10.024;2023-03-15T11:40:20;95642.75;;;8.69;nan
8501;BME280;4288;48.484;10.024;2023-03-15T11:42:53;95651.53;;;7.62;nan
8501;BME280;4288;48.484;10.024;2023-03-15T11:45:30;95642.22;;;7.26;nan
8501;BME280;4288;48.484;10.024;2023-03-15T11:48:06;95632.59;;;7.18;nan
8501;BME280;4288;48.484;10.024;2023-03-15T11:50:37;95636.25;;;8.37;nan
8501;BME280;4288;48.484;10.024;2023-03-15T11:53:05;95634.13;;;8.50;nan
8501;BME280;4288;48.484;10.024;2023-03-15T11:55:34;95629.31;;;8.62;nan
8501;BME280;4288;48.484;10.024;2023-03-15T11:58:27;95624.38;;;8.01;nan
8501;BME280;4288;48.484;10.024;2023-03-15T12:00:59;95620.78;;;8.46;nan
8501;BME280;4288;48.484;10.024;2023-03-15T12:03:35;95619.66;;;8.47;nan
8501;BME280;4288;48.484;10.024;2023-03-15T12:06:32;95606.09;;;9.94;nan
8501;BME280;4288;48.484;10.024;2023-03-15T12:09:00;95596.13;;;10.70;nan
8501;BME280;4288;48.484;10.024;2023-03-15T12:11:41;95601.59;;;11.40;nan
8501;BME280;4288;48.484;10.024;2023-03-15T12:14:28;95606.56;;;11.52;nan
8501;BME280;4288;48.484;10.024;2023-03-15T12:17:41;95608.41;;;10.96;nan
8501;BME280;4288;48.484;10.024;2023-03-15T12:20:19;95614.91;;;10.88;nan
8501;BME280;4288;48.484;10.024;2023-03-15T12:22:51;95612.97;;;10.85;nan
8501;BME280;4288;48.484;10.024;2023-03-15T12:25:23;95613.44;;;9.53;nan
8501;BME280;4288;48.484;10.024;2023-03-15T12:27:53;95608.41;;;10.96;nan
8501;BME280;4288;48.484;10.024;2023-03-15T12:30:25;95623.00;;;11.90;nan
8501;BME280;4288;48.484;10.024;2023-03-15T12:32:58;95614.13;;;12.24;nan
8501;BME280;4288;48.484;10.024;2023-03-15T12:35:31;95618.75;;;10.97;nan
8501;BME280;4288;48.484;10.024;2023-03-15T12:38:02;95623.22;;;10.65;nan
8501;BME280;4288;48.484;10.024;2023-03-15T12:40:41;95616.50;;;11.59;nan
8501;BME280;4288;48.484;10.024;2023-03-15T12:43:13;95622.03;;;10.55;nan
8501;BME280;4288;48.484;10.024;2023-03-15T12:45:45;95620.63;;;11.00;nan
8501;BME280;4288;48.484;10.024;2023-03-15T12:48:34;95622.47;;;10.71;nan
8501;BME280;4288;48.484;10.024;2023-03-15T12:51:09;95616.22;;;10.29;nan
8501;BME280;4288;48.484;10.024;2023-03-15T12:53:47;95608.44;;;11.03;nan
8501;BME280;4288;48.484;10.024;2023-03-15T12:56:41;95618.03;;;10.11;nan
8501;BME280;4288;48.484;10.024;2023-03-15T12:59:32;95617.50;;;8.93;nan
8501;BME280;4288;48.484;10.024;2023-03-15T13:02:09;95625.31;;;8.42;nan
8501;BME280;4288;48.484;10.024;2023-03-15T13:04:46;95615.19;;;8.58;nan
8501;BME280;4288;48.484;10.024;2023-03-15T13:07:23;95617.03;;;8.87;nan
8501;BME280;4288;48.484;10.024;2023-03-15T13:10:44;95610.81;;;8.13;nan
8501;BME280;4288;48.484;10.024;2023-03-15T13:13:50;95621.97;;;7.67;nan
8501;BME280;4288;48.484;10.024;2023-03-15T13:16:28;95622.75;;;7.67;nan
8501;BME280;4288;48.484;10.024;2023-03-15T13:19:12;95621.63;;;7.68;nan
8501;BME280;4288;48.484;10.024;2023-03-15T13:21:59;95621.25;;;7.70;nan
8501;BME280;4288;48.484;10.024;2023-03-15T13:24:39;95616.81;;;8.03;nan
8501;BME280;4288;48.484;10.024;2023-03-15T13:27:14;95611.59;;;9.64;nan
8501;BME280;4288;48.484;10.024;2023-03-15T13:29:48;95616.84;;;9.54;nan
8501;BME280;4288;48.484;10.024;2023-03-15T13:32:18;95604.31;;;9.11;nan
8501;BME280;4288;48.484;10.024;2023-03-15T13:34:48;95613.28;;;8.55;nan
8501;BME280;4288;48.484;10.024;2023-03-15T13:37:22;95609.25;;;8.39;nan
8501;BME280;4288;48.484;10.024;2023-03-15T13:39:54;95619.56;;;7.84;nan
8501;BME280;4288;48.484;10.024;2023-03-15T13:42:23;95615.75;;;7.82;nan
8501;BME280;4288;48.484;10.024;2023-03-15T13:45:11;95622.81;;;7.74;nan
8501;BME280;4288;48.484;10.024;2023-03-15T13:47:40;95623.56;;;7.97;nan
8501;BME280;4288;48.484;10.024;2023-03-15T13:50:13;95620.13;;;7.45;nan
8501;BME280;4288;48.484;10.024;2023-03-15T13:52:43;95621.38;;;7.28;nan
8501;BME280;4288;48.484;10.024;2023-03-15T13:55:13;95622.72;;;7.18;nan
8501;BME280;4288;48.484;10.024;2023-03-15T13:57:41;95630.16;;;7.55;nan
8501;BME280;4288;48.484;10.024;2023-03-15T14:00:12;95616.06;;;8.33;nan
8501;BME280;4288;48.484;10.024;2023-03-15T14:02:47;95630.22;;;8.40;nan